Time;durP1;ratioP1;P1;durP2;ratioP2;P2;SDS_P1;SDS_P2;PMS_P1;PMS_P2;Temp;Humidity;BMP_temperature;BMP_pressure;BME280_temperature;BME280_humidity;BME280_pressure;Samples;Min_cycle;Max_cycle;Signal;HPM_P1;HPM_P2
2021/07/24 00:00:59;;;;;;;9.60;8.45;;;19.80;99.90;;;;;;5091394;28;20211;-58
2021/07/24 00:03:28;;;;;;;10.07;8.45;;;19.70;99.90;;;;;;5090970;28;20228;-57
2021/07/24 00:05:54;;;;;;;10.27;9.07;;;19.60;99.90;;;;;;5090989;28;20221;-57
2021/07/24 00:08:21;;;;;;;10.77;9.35;;;19.50;99.90;;;;;;5090985;28;20208;-56
2021/07/24 00:10:48;;;;;;;10.00;8.73;;;19.50;99.90;;;;;;5091173;28;20223;-58
2021/07/24 00:13:16;;;;;;;14.43;8.95;;;19.50;99.90;;;;;;5090865;28;20285;-56
2021/07/24 00:15:43;;;;;;;13.23;9.40;;;19.50;99.90;;;;;;5090821;28;20257;-56
2021/07/24 00:18:10;;;;;;;10.30;9.20;;;19.50;99.90;;;;;;5090691;28;20204;-57
2021/07/24 00:20:37;;;;;;;10.40;8.95;;;19.40;99.90;;;;;;5090772;28;20260;-57
2021/07/24 00:23:04;;;;;;;15.15;9.48;;;19.40;99.90;;;;;;5090906;28;20228;-57
2021/07/24 00:25:30;;;;;;;11.18;9.23;;;19.30;99.90;;;;;;5090854;28;20291;-58
2021/07/24 00:27:57;;;;;;;14.95;9.38;;;19.30;99.90;;;;;;5090564;28;20208;-56
2021/07/24 00:30:25;;;;;;;15.93;9.27;;;19.30;99.90;;;;;;5090806;28;20210;-57
2021/07/24 00:32:52;;;;;;;12.55;9.13;;;19.30;99.90;;;;;;5090356;28;20217;-57
2021/07/24 00:35:19;;;;;;;13.60;8.77;;;19.30;99.90;;;;;;5090429;28;20208;-56
2021/07/24 00:37:45;;;;;;;12.05;8.88;;;19.40;99.90;;;;;;5090544;28;20683;-57
2021/07/24 00:40:16;;;;;;;10.77;9.05;;;19.50;99.90;;;;;;5092276;28;20212;-57
2021/07/24 00:42:44;;;;;;;10.35;8.60;;;19.60;99.90;;;;;;5094708;28;20197;-56
2021/07/24 00:45:14;;;;;;;10.60;8.95;;;19.60;99.90;;;;;;5094523;28;20294;-56
2021/07/24 00:47:45;;;;;;;10.90;9.13;;;19.70;99.90;;;;;;5094317;28;20735;-56
2021/07/24 00:50:15;;;;;;;11.77;9.10;;;19.80;99.90;;;;;;5094395;28;20744;-58
2021/07/24 00:52:42;;;;;;;11.52;8.80;;;19.80;99.90;;;;;;5094579;28;20273;-56
2021/07/24 00:55:11;;;;;;;10.15;8.57;;;19.80;99.90;;;;;;5094418;28;20235;-56
2021/07/24 00:57:38;;;;;;;11.52;8.55;;;19.80;99.90;;;;;;5094474;28;20208;-56
2021/07/24 01:00:07;;;;;;;12.65;9.38;;;19.80;99.90;;;;;;5095215;28;20236;-56
2021/07/24 01:02:33;;;;;;;11.63;9.20;;;19.80;99.90;;;;;;5095154;28;20204;-58
2021/07/24 01:05:03;;;;;;;11.27;8.65;;;19.70;99.90;;;;;;5094151;28;20220;-56
2021/07/24 01:07:31;;;;;;;12.15;9.38;;;19.70;99.90;;;;;;5094413;28;20265;-57
2021/07/24 01:09:58;;;;;;;10.88;8.80;;;19.60;99.90;;;;;;5094180;28;20248;-57
2021/07/24 01:12:25;;;;;;;11.32;8.90;;;19.60;99.90;;;;;;5094127;28;20220;-59
2021/07/24 01:14:52;;;;;;;10.10;8.95;;;19.70;99.90;;;;;;5094018;28;20633;-57
2021/07/24 01:17:18;;;;;;;11.70;8.75;;;19.70;99.90;;;;;;5094219;28;20208;-57
2021/07/24 01:19:46;;;;;;;11.27;9.15;;;19.80;99.90;;;;;;5093977;28;20204;-59
2021/07/24 01:22:14;;;;;;;10.50;9.13;;;19.70;99.90;;;;;;5094168;28;20679;-57
2021/07/24 01:24:40;;;;;;;10.55;8.77;;;19.70;99.90;;;;;;5093681;28;20235;-57
2021/07/24 01:27:08;;;;;;;10.75;8.70;;;19.70;99.90;;;;;;5093749;28;20265;-58
2021/07/24 01:29:36;;;;;;;10.35;8.93;;;19.60;99.90;;;;;;5093760;28;20212;-58
2021/07/24 01:32:03;;;;;;;12.55;8.82;;;19.60;99.90;;;;;;5093632;28;20336;-57
2021/07/24 01:34:30;;;;;;;13.88;8.85;;;19.60;99.90;;;;;;5093470;28;20281;-58
2021/07/24 01:36:57;;;;;;;11.77;9.02;;;19.60;99.90;;;;;;5093785;28;20215;-57
2021/07/24 01:39:25;;;;;;;9.63;8.32;;;19.60;99.90;;;;;;5093420;28;20250;-58
2021/07/24 01:41:54;;;;;;;12.05;9.27;;;19.70;99.90;;;;;;5093306;28;20204;-59
2021/07/24 01:44:20;;;;;;;10.23;9.07;;;19.60;99.90;;;;;;5093496;28;20228;-58
2021/07/24 01:46:47;;;;;;;10.73;8.70;;;19.70;99.90;;;;;;5093640;28;20227;-57
2021/07/24 01:52:46;;;;;;;11.73;8.85;;;19.70;99.90;;;;;;5093251;28;20556;-58
2021/07/24 01:54:59;;;;;;;10.52;8.88;;;19.60;99.90;;;;;;5092974;28;20231;-55
2021/07/24 01:57:27;;;;;;;11.93;8.70;;;19.70;99.90;;;;;;5093298;28;20208;-58
2021/07/24 01:59:57;;;;;;;10.45;8.23;;;19.70;99.90;;;;;;5092983;28;20695;-57
2021/07/24 02:02:25;;;;;;;11.90;8.35;;;19.70;99.90;;;;;;5093248;28;20219;-56
2021/07/24 02:04:53;;;;;;;10.75;8.68;;;19.70;99.90;;;;;;5092819;28;20670;-56
2021/07/24 02:07:22;;;;;;;13.57;8.93;;;19.70;99.90;;;;;;5093215;28;20212;-58
2021/07/24 02:09:49;;;;;;;11.80;9.07;;;19.60;99.90;;;;;;5093053;28;20204;-57
2021/07/24 02:12:17;;;;;;;11.85;9.02;;;19.70;99.90;;;;;;5092755;28;20692;-56
2021/07/24 02:14:44;;;;;;;11.82;8.88;;;19.70;99.90;;;;;;5092620;28;20224;-58
2021/07/24 02:17:11;;;;;;;12.27;8.95;;;19.70;99.90;;;;;;5092757;28;20212;-56
2021/07/24 02:19:38;;;;;;;10.25;8.25;;;19.60;99.90;;;;;;5092617;28;20375;-57
2021/07/24 02:22:05;;;;;;;12.13;9.18;;;19.70;99.90;;;;;;5092927;28;20204;-57
2021/07/24 02:24:32;;;;;;;10.23;9.02;;;19.80;99.90;;;;;;5092572;28;20297;-56
2021/07/24 02:26:58;;;;;;;11.80;9.68;;;19.80;99.90;;;;;;5092627;28;20258;-56
2021/07/24 02:29:26;;;;;;;12.10;10.55;;;19.80;99.90;;;;;;5092577;28;20625;-56
2021/07/24 02:31:55;;;;;;;14.27;11.32;;;19.60;99.90;;;;;;5092721;28;20671;-56
2021/07/24 02:34:22;;;;;;;13.18;10.40;;;19.50;99.90;;;;;;5092357;28;20233;-57
2021/07/24 02:36:49;;;;;;;14.27;10.35;;;19.50;99.90;;;;;;5093024;28;20204;-56
2021/07/24 02:39:15;;;;;;;10.13;9.13;;;19.60;99.90;;;;;;5092608;28;20265;-56
2021/07/24 02:41:42;;;;;;;12.95;9.52;;;19.60;99.90;;;;;;5092375;28;20426;-56
2021/07/24 02:44:09;;;;;;;11.85;9.07;;;19.60;99.90;;;;;;5092031;28;20224;-57
2021/07/24 02:46:37;;;;;;;11.43;8.93;;;19.70;99.90;;;;;;5092143;28;20212;-56
2021/07/24 02:49:03;;;;;;;10.52;8.55;;;19.60;99.90;;;;;;5092179;28;20570;-56
2021/07/24 02:51:30;;;;;;;14.27;9.15;;;19.50;99.90;;;;;;5092421;28;20208;-56
2021/07/24 02:53:57;;;;;;;11.15;8.95;;;19.60;99.90;;;;;;5092013;28;20577;-57
2021/07/24 02:56:23;;;;;;;12.48;8.60;;;19.60;99.90;;;;;;5092137;28;20200;-56
2021/07/24 02:58:50;;;;;;;11.00;9.00;;;19.60;99.90;;;;;;5092054;28;20672;-56
2021/07/24 03:01:17;;;;;;;11.77;8.95;;;19.60;99.90;;;;;;5091973;28;20258;-57
2021/07/24 03:03:44;;;;;;;10.93;8.68;;;19.50;99.90;;;;;;5090673;28;20254;-58
2021/07/24 03:06:11;;;;;;;11.68;9.00;;;19.50;99.90;;;;;;5091864;28;20695;-57
2021/07/24 03:08:38;;;;;;;12.05;9.57;;;19.50;99.90;;;;;;5091707;28;20205;-56
2021/07/24 03:11:04;;;;;;;11.70;9.95;;;19.60;99.90;;;;;;5091751;28;20208;-57
2021/07/24 03:13:31;;;;;;;10.80;9.30;;;19.60;99.90;;;;;;5091381;28;20232;-57
2021/07/24 03:15:58;;;;;;;12.27;10.07;;;19.70;99.90;;;;;;5091710;28;20291;-56
2021/07/24 03:18:24;;;;;;;12.18;9.65;;;19.70;99.90;;;;;;5091774;28;20204;-57
2021/07/24 03:20:52;;;;;;;10.98;9.65;;;19.70;99.90;;;;;;5091654;28;20588;-57
2021/07/24 03:23:19;;;;;;;14.98;11.27;;;19.70;99.90;;;;;;5091430;28;20712;-57
2021/07/24 03:25:46;;;;;;;14.55;9.98;;;19.70;99.90;;;;;;5091357;28;20204;-56
2021/07/24 03:28:12;;;;;;;11.18;9.43;;;19.80;99.90;;;;;;5091230;28;20242;-56
2021/07/24 03:30:39;;;;;;;10.93;8.93;;;19.80;99.90;;;;;;5091591;28;20211;-58
2021/07/24 03:33:06;;;;;;;13.15;10.10;;;19.80;99.90;;;;;;5117488;22;20243;-58
2021/07/24 03:35:34;;;;;;;11.93;9.77;;;19.90;99.90;;;;;;5070669;28;20224;-59
2021/07/24 03:38:04;;;;;;;12.32;9.35;;;19.90;99.90;;;;;;5072737;28;20201;-61
2021/07/24 03:40:31;;;;;;;12.80;9.68;;;19.90;99.90;;;;;;5072176;28;20680;-60
2021/07/24 03:42:58;;;;;;;11.45;9.45;;;19.90;99.90;;;;;;5071779;28;20729;-59
2021/07/24 03:45:25;;;;;;;13.13;9.27;;;19.90;99.90;;;;;;5072082;28;20258;-60
2021/07/24 03:47:51;;;;;;;11.40;9.02;;;19.90;99.90;;;;;;5071642;28;20218;-59
2021/07/24 03:50:18;;;;;;;11.57;8.95;;;20.00;99.90;;;;;;5072105;28;20205;-60
2021/07/24 03:52:45;;;;;;;12.00;8.80;;;19.90;99.90;;;;;;5071559;28;20233;-61
2021/07/24 03:55:13;;;;;;;11.55;8.90;;;19.90;99.90;;;;;;5071614;28;20255;-61
2021/07/24 03:57:39;;;;;;;11.32;8.75;;;20.00;99.90;;;;;;5071644;28;20502;-61
2021/07/24 04:00:07;;;;;;;14.27;9.80;;;20.00;99.90;;;;;;5071350;28;20311;-60
2021/07/24 04:02:34;;;;;;;11.88;8.77;;;20.10;99.90;;;;;;5071666;28;20219;-60
2021/07/24 04:05:02;;;;;;;12.57;9.35;;;20.20;99.90;;;;;;5071215;28;20231;-60
2021/07/24 04:07:29;;;;;;;11.40;9.27;;;20.30;99.90;;;;;;5071173;28;20247;-60
2021/07/24 04:09:56;;;;;;;10.25;8.57;;;20.40;99.90;;;;;;5070790;28;20213;-60
2021/07/24 04:12:25;;;;;;;10.85;8.50;;;20.50;99.90;;;;;;5071391;28;20208;-59
2021/07/24 04:14:51;;;;;;;12.15;8.93;;;20.70;99.90;;;;;;5072131;28;20278;-61
2021/07/24 04:17:18;;;;;;;12.15;8.80;;;20.80;99.90;;;;;;5073671;28;20691;-59
2021/07/24 04:19:45;;;;;;;12.73;8.27;;;20.90;99.90;;;;;;5071028;28;20209;-61
2021/07/24 04:22:11;;;;;;;9.65;8.18;;;20.90;99.90;;;;;;5071452;28;20205;-59
2021/07/24 04:24:39;;;;;;;11.85;8.45;;;20.90;99.90;;;;;;5071261;28;20282;-59
2021/07/24 04:27:07;;;;;;;13.02;8.85;;;21.00;99.90;;;;;;5071567;28;20254;-60
2021/07/24 04:29:35;;;;;;;13.60;8.85;;;21.10;99.90;;;;;;5071363;28;20300;-60
2021/07/24 04:32:03;;;;;;;10.52;8.88;;;21.30;99.90;;;;;;5071990;28;20258;-60
2021/07/24 04:34:30;;;;;;;9.60;8.40;;;21.50;99.90;;;;;;5071206;28;20228;-60
2021/07/24 04:36:57;;;;;;;12.95;9.27;;;21.60;99.90;;;;;;5071398;28;20223;-59
2021/07/24 04:39:23;;;;;;;13.63;9.45;;;21.70;99.90;;;;;;5071188;28;20205;-59
2021/07/24 04:41:50;;;;;;;15.02;9.05;;;21.70;99.90;;;;;;5071671;28;20698;-60
2021/07/24 04:44:17;;;;;;;13.88;9.73;;;21.70;99.90;;;;;;5070870;28;20228;-60
2021/07/24 04:46:45;;;;;;;11.48;9.48;;;21.70;99.90;;;;;;5070991;28;20212;-60
2021/07/24 04:49:11;;;;;;;12.88;9.73;;;21.50;99.90;;;;;;5071597;28;20212;-60
2021/07/24 04:51:38;;;;;;;11.73;9.90;;;21.40;99.90;;;;;;5071434;28;20228;-59
2021/07/24 04:54:05;;;;;;;14.82;9.38;;;21.40;99.90;;;;;;5070942;28;20229;-61
2021/07/24 04:56:33;;;;;;;16.42;12.45;;;21.30;99.90;;;;;;5071048;28;20209;-60
2021/07/24 04:59:01;;;;;;;13.75;11.07;;;21.10;99.90;;;;;;5070839;28;20251;-61
2021/07/24 05:01:28;;;;;;;13.43;10.27;;;21.20;99.90;;;;;;5070942;28;20649;-60
2021/07/24 05:03:57;;;;;;;13.63;10.32;;;21.10;99.90;;;;;;5070489;28;20232;-60
2021/07/24 05:06:24;;;;;;;15.38;10.65;;;21.00;99.90;;;;;;5071018;28;20209;-61
2021/07/24 05:08:51;;;;;;;13.07;10.75;;;20.90;99.90;;;;;;5071074;28;20278;-59
2021/07/24 05:11:18;;;;;;;17.48;11.05;;;20.90;99.90;;;;;;5071036;28;20212;-61
2021/07/24 05:13:46;;;;;;;15.60;10.55;;;21.00;99.90;;;;;;5070647;28;20299;-61
2021/07/24 05:16:13;;;;;;;14.02;10.82;;;21.10;99.90;;;;;;5071101;28;20228;-60
2021/07/24 05:18:40;;;;;;;11.38;10.13;;;21.10;99.90;;;;;;5070856;28;20254;-61
2021/07/24 05:21:08;;;;;;;12.23;10.30;;;21.10;99.90;;;;;;5071199;28;20266;-61
2021/07/24 05:23:34;;;;;;;14.57;10.40;;;21.30;99.90;;;;;;5071320;28;20228;-61
2021/07/24 05:26:01;;;;;;;12.45;9.75;;;21.30;99.90;;;;;;5071261;28;20209;-61
2021/07/24 05:28:28;;;;;;;14.73;9.57;;;21.20;99.90;;;;;;5074447;28;20213;-61
2021/07/24 05:30:54;;;;;;;15.30;10.75;;;21.10;99.90;;;;;;5074574;28;20250;-61
2021/07/24 05:33:21;;;;;;;12.40;9.75;;;21.00;99.90;;;;;;5073792;28;20252;-60
2021/07/24 05:35:48;;;;;;;13.60;10.32;;;21.00;99.90;;;;;;5074814;28;20208;-59
2021/07/24 05:38:16;;;;;;;11.95;10.40;;;21.10;99.90;;;;;;5074185;28;20208;-60
2021/07/24 05:40:42;;;;;;;13.82;9.95;;;21.20;99.90;;;;;;5074885;28;20323;-60
2021/07/24 05:43:09;;;;;;;17.40;12.35;;;21.40;99.90;;;;;;5074304;28;20213;-60
2021/07/24 05:45:36;;;;;;;16.10;10.40;;;21.50;99.90;;;;;;5073932;28;20201;-61
2021/07/24 05:48:03;;;;;;;13.82;11.55;;;21.70;99.90;;;;;;5074130;28;20322;-60
2021/07/24 05:50:30;;;;;;;13.70;9.90;;;22.00;99.90;;;;;;5074311;28;20316;-60
2021/07/24 05:52:56;;;;;;;13.50;10.25;;;22.30;99.90;;;;;;5074092;28;20205;-60
2021/07/24 05:55:24;;;;;;;14.25;9.55;;;22.60;99.90;;;;;;5073802;28;20236;-61
2021/07/24 05:57:51;;;;;;;15.15;10.25;;;22.80;99.90;;;;;;5073720;28;20209;-61
2021/07/24 06:00:18;;;;;;;13.02;9.55;;;23.10;99.90;;;;;;5073728;28;20209;-61
2021/07/24 06:02:45;;;;;;;11.15;9.10;;;23.30;99.90;;;;;;5074134;28;20228;-61
2021/07/24 06:05:12;;;;;;;17.38;9.70;;;23.60;99.90;;;;;;5073767;28;20648;-61
2021/07/24 06:07:38;;;;;;;13.15;9.65;;;23.90;99.90;;;;;;5073540;28;20213;-61
2021/07/24 06:10:06;;;;;;;16.55;9.88;;;24.20;99.90;;;;;;5073451;28;20205;-60
2021/07/24 06:12:34;;;;;;;10.98;9.25;;;24.40;99.90;;;;;;5073280;28;20262;-60
2021/07/24 06:15:01;;;;;;;14.40;10.35;;;24.50;99.90;;;;;;5073221;28;20221;-61
2021/07/24 06:17:28;;;;;;;10.85;9.75;;;24.40;99.90;;;;;;5073650;28;20213;-61
2021/07/24 06:19:54;;;;;;;11.38;9.52;;;24.30;99.90;;;;;;5073145;28;20254;-61
2021/07/24 06:22:21;;;;;;;16.60;10.38;;;24.30;99.90;;;;;;5073250;28;20668;-61
2021/07/24 06:24:48;;;;;;;16.73;9.95;;;24.30;99.90;;;;;;5072893;28;20278;-60
2021/07/24 06:27:14;;;;;;;12.75;9.70;;;24.40;99.90;;;;;;5073202;28;20208;-60
2021/07/24 06:29:43;;;;;;;14.68;9.23;;;24.50;99.90;;;;;;5073442;28;20209;-60
2021/07/24 06:32:10;;;;;;;10.50;9.40;;;24.70;99.90;;;;;;5073236;28;20761;-61
2021/07/24 06:34:37;;;;;;;10.80;9.18;;;24.80;99.90;;;;;;5073679;28;20228;-61
2021/07/24 06:37:04;;;;;;;11.35;9.05;;;24.80;99.90;;;;;;5073798;28;20557;-61
2021/07/24 06:39:30;;;;;;;14.27;9.77;;;24.90;99.90;;;;;;5073486;28;20228;-59
2021/07/24 06:41:57;;;;;;;14.43;9.85;;;25.00;99.90;;;;;;5073611;28;20213;-60
2021/07/24 06:44:24;;;;;;;11.95;9.80;;;25.10;99.90;;;;;;5073851;28;20220;-61
2021/07/24 06:46:52;;;;;;;12.15;9.48;;;25.20;99.90;;;;;;5074082;28;20266;-61
2021/07/24 06:49:19;;;;;;;12.05;10.20;;;25.30;99.90;;;;;;5073958;28;20205;-61
2021/07/24 06:51:46;;;;;;;11.95;10.20;;;25.30;99.90;;;;;;5073030;28;20243;-62
2021/07/24 06:54:13;;;;;;;16.20;10.68;;;25.20;99.90;;;;;;5072982;28;20692;-58
2021/07/24 06:56:40;;;;;;;14.73;11.63;;;25.00;99.90;;;;;;5072883;28;20672;-59
2021/07/24 06:59:06;;;;;;;16.25;12.55;;;24.90;99.90;;;;;;5072463;28;20718;-60
2021/07/24 07:01:33;;;;;;;14.27;10.80;;;24.80;99.90;;;;;;5072280;28;20622;-59
2021/07/24 07:04:01;;;;;;;12.07;10.00;;;24.70;99.90;;;;;;5072187;28;20221;-59
2021/07/24 07:06:28;;;;;;;15.00;10.88;;;24.60;99.90;;;;;;5072224;28;20213;-59
2021/07/24 07:08:54;;;;;;;16.10;9.82;;;24.50;99.90;;;;;;5071970;28;20629;-60
2021/07/24 07:11:22;;;;;;;11.68;10.23;;;24.70;99.90;;;;;;5072068;28;20745;-60
2021/07/24 07:13:49;;;;;;;16.27;10.02;;;24.90;99.90;;;;;;5071894;28;20685;-60
2021/07/24 07:16:15;;;;;;;14.27;10.40;;;25.40;99.90;;;;;;5072356;28;20205;-60
2021/07/24 07:18:42;;;;;;;12.40;10.10;;;26.30;99.90;;;;;;5072358;28;20266;-60
2021/07/24 07:21:10;;;;;;;10.60;9.52;;;27.40;99.90;;;;;;5072604;28;20205;-60
2021/07/24 07:23:37;;;;;;;12.30;10.25;;;28.20;99.90;;;;;;5071876;28;20281;-61
2021/07/24 07:26:04;;;;;;;12.77;10.02;;;28.60;99.90;;;;;;5072541;28;20676;-60
2021/07/24 07:28:30;;;;;;;13.57;10.18;;;29.00;99.90;;;;;;5072437;28;20216;-62
2021/07/24 07:30:57;;;;;;;12.50;9.80;;;29.00;99.90;;;;;;5072320;28;20262;-60
2021/07/24 07:33:24;;;;;;;13.68;10.15;;;28.60;99.90;;;;;;5071924;28;20235;-60
2021/07/24 07:35:50;;;;;;;14.88;9.82;;;27.90;99.90;;;;;;5072300;28;20232;-60
2021/07/24 07:38:18;;;;;;;11.02;9.75;;;27.30;99.90;;;;;;5072242;28;20208;-62
2021/07/24 07:40:45;;;;;;;15.38;10.52;;;26.80;99.90;;;;;;5072454;28;20209;-61
2021/07/24 07:43:12;;;;;;;12.10;9.88;;;26.60;99.90;;;;;;5071396;28;20212;-61
2021/07/24 07:45:40;;;;;;;12.98;10.68;;;26.40;99.90;;;;;;5071820;28;20208;-62
2021/07/24 07:48:07;;;;;;;15.13;11.45;;;26.20;99.90;;;;;;5082891;28;20213;-63
2021/07/24 07:50:35;;;;;;;12.63;11.23;;;26.10;99.90;;;;;;5070087;28;20220;-59
2021/07/24 07:53:02;;;;;;;18.45;11.55;;;26.10;99.90;;;;;;5070498;28;20204;-60
2021/07/24 07:55:30;;;;;;;13.98;11.52;;;26.00;99.90;;;;;;5070588;28;20228;-59
2021/07/24 07:57:57;;;;;;;14.68;10.55;;;25.90;99.90;;;;;;5070643;28;20247;-60
2021/07/24 08:00:23;;;;;;;14.60;12.15;;;26.00;99.90;;;;;;5071115;28;20200;-60
2021/07/24 08:02:54;;;;;;;15.35;11.77;;;26.00;99.90;;;;;;5071328;28;20204;-61
2021/07/24 08:05:21;;;;;;;13.40;10.77;;;26.20;99.90;;;;;;5071186;28;20254;-59
2021/07/24 08:07:48;;;;;;;15.02;11.45;;;26.30;99.90;;;;;;5071422;28;20208;-60
2021/07/24 08:10:14;;;;;;;14.05;11.25;;;26.40;99.90;;;;;;5071148;28;20201;-58
2021/07/24 08:12:43;;;;;;;14.45;11.43;;;26.50;99.90;;;;;;5070969;28;20220;-58
2021/07/24 08:15:10;;;;;;;15.82;11.07;;;26.60;99.90;;;;;;5070414;28;20614;-62
2021/07/24 08:17:36;;;;;;;12.70;10.20;;;26.50;99.90;;;;;;5070934;28;20205;-60
2021/07/24 08:20:04;;;;;;;13.27;10.43;;;26.50;99.90;;;;;;5070899;28;20211;-61
2021/07/24 08:22:31;;;;;;;12.52;9.90;;;26.50;99.90;;;;;;5070883;28;20237;-61
2021/07/24 08:24:58;;;;;;;12.82;10.20;;;26.50;99.90;;;;;;5070729;28;20228;-61
2021/07/24 08:27:25;;;;;;;16.40;10.77;;;26.60;99.90;;;;;;5070771;28;20209;-61
2021/07/24 08:29:53;;;;;;;12.30;10.40;;;26.60;99.90;;;;;;5070674;28;20201;-61
2021/07/24 08:32:20;;;;;;;12.80;10.48;;;26.60;99.90;;;;;;5070257;28;20688;-61
2021/07/24 08:34:49;;;;;;;15.50;10.80;;;26.50;99.90;;;;;;5070266;28;20286;-61
2021/07/24 08:37:16;;;;;;;13.82;10.30;;;26.30;99.90;;;;;;5070799;28;20688;-64
2021/07/24 08:39:42;;;;;;;14.48;10.68;;;26.00;99.90;;;;;;5070406;28;20724;-61
2021/07/24 08:42:09;;;;;;;11.77;10.25;;;25.40;99.90;;;;;;5071316;28;20211;-60
2021/07/24 08:44:36;;;;;;;13.77;11.00;;;24.90;99.90;;;;;;5070331;28;20221;-62
2021/07/24 08:47:05;;;;;;;19.42;10.70;;;24.80;99.90;;;;;;5071747;28;20236;-63
2021/07/24 08:49:32;;;;;;;13.15;9.70;;;25.00;99.90;;;;;;5070703;28;20200;-63
2021/07/24 08:51:59;;;;;;;12.82;9.35;;;25.10;99.90;;;;;;5070486;28;20255;-62
2021/07/24 08:54:26;;;;;;;13.25;10.13;;;25.30;99.90;;;;;;5062292;28;20229;-62
2021/07/24 08:56:54;;;;;;;11.75;10.10;;;25.30;99.90;;;;;;5050933;28;20603;-67
2021/07/24 08:59:22;;;;;;;13.45;10.55;;;25.40;99.90;;;;;;5050481;28;20674;-64
2021/07/24 09:01:52;;;;;;;13.57;10.20;;;25.40;99.90;;;;;;5052839;28;20210;-61
2021/07/24 09:04:22;;;;;;;12.20;9.75;;;25.70;99.90;;;;;;5054050;28;20316;-60
2021/07/24 09:06:52;;;;;;;13.25;9.95;;;26.00;99.90;;;;;;5054316;28;20202;-60
2021/07/24 09:09:20;;;;;;;12.93;10.00;;;26.20;99.90;;;;;;5053830;28;20673;-60
2021/07/24 09:11:47;;;;;;;14.13;9.93;;;26.40;99.90;;;;;;5054059;28;20239;-60
2021/07/24 09:14:13;;;;;;;12.93;9.82;;;26.70;99.90;;;;;;5053809;28;20234;-59
2021/07/24 09:16:42;;;;;;;16.60;10.00;;;27.20;99.90;;;;;;5054186;28;20688;-61
2021/07/24 09:19:08;;;;;;;12.38;10.38;;;27.40;99.90;;;;;;5054139;28;20210;-61
2021/07/24 09:21:37;;;;;;;11.43;9.13;;;27.60;99.90;;;;;;5053952;28;20236;-60
2021/07/24 09:24:26;;;;;;;13.05;9.55;;;27.60;99.90;;;;;;5053981;28;20225;-60
2021/07/24 09:26:52;;;;;;;12.68;9.85;;;27.80;99.90;;;;;;5053952;28;20206;-60
2021/07/24 09:29:21;;;;;;;11.75;9.25;;;28.00;99.90;;;;;;5054212;28;20202;-60
2021/07/24 09:31:48;;;;;;;14.00;9.63;;;28.20;99.90;;;;;;5053840;28;20201;-60
2021/07/24 09:34:16;;;;;;;12.75;9.82;;;28.20;99.90;;;;;;5090954;22;20313;-62
2021/07/24 09:36:46;;;;;;;12.13;9.43;;;28.10;99.90;;;;;;5093910;28;20211;-61
2021/07/24 09:39:14;;;;;;;11.98;9.25;;;28.00;99.90;;;;;;5093513;28;20291;-61
2021/07/24 09:41:42;;;;;;;13.63;9.63;;;28.20;99.90;;;;;;5093931;28;20215;-62
2021/07/24 09:44:09;;;;;;;11.98;9.80;;;28.20;99.90;;;;;;5093486;28;20251;-60
2021/07/24 09:46:36;;;;;;;12.00;9.32;;;28.30;99.90;;;;;;5093480;28;20580;-61
2021/07/24 09:49:13;;;;;;;11.30;8.77;;;28.50;99.90;;;;;;5093104;28;20405;-62
2021/07/24 09:51:41;;;;;;;10.63;8.90;;;28.70;99.90;;;;;;5093189;28;20207;-63
2021/07/24 09:54:26;;;;;;;13.02;9.43;;;29.00;99.90;;;;;;5092818;28;20316;-61
2021/07/24 09:56:54;;;;;;;11.13;8.73;;;29.20;99.90;;;;;;5072703;28;20201;-62
2021/07/24 09:59:24;;;;;;;11.68;8.40;;;29.20;99.90;;;;;;5076193;28;20215;-60
2021/07/24 10:01:55;;;;;;;11.95;9.25;;;29.60;99.90;;;;;;5072352;28;20209;-60
2021/07/24 10:04:26;;;;;;;13.63;9.18;;;29.90;99.90;;;;;;5072580;28;20221;-61
2021/07/24 10:06:56;;;;;;;10.27;8.77;;;30.20;99.90;;;;;;5072907;28;20209;-60
2021/07/24 10:09:27;;;;;;;13.50;8.15;;;30.40;99.90;;;;;;5072670;28;20594;-59
2021/07/24 10:11:55;;;;;;;12.10;8.65;;;30.50;99.90;;;;;;5072549;28;20212;-62
2021/07/24 10:14:22;;;;;;;11.15;8.38;;;30.60;99.60;;;;;;5071593;28;20235;-61
2021/07/24 10:16:50;;;;;;;9.43;8.43;;;30.80;98.40;;;;;;5072488;28;20716;-61
2021/07/24 10:19:18;;;;;;;10.57;8.52;;;30.90;97.50;;;;;;5072330;28;20205;-61
2021/07/24 10:21:44;;;;;;;10.50;8.35;;;31.00;96.80;;;;;;5072655;28;20237;-65
2021/07/24 10:24:11;;;;;;;9.82;8.10;;;31.10;96.10;;;;;;5072436;28;20221;-61
2021/07/24 10:26:44;;;;;;;10.43;8.60;;;31.10;96.40;;;;;;5072363;28;20596;-61
2021/07/24 10:29:15;;;;;;;12.52;8.20;;;31.20;95.90;;;;;;5072031;28;20641;-60
2021/07/24 10:31:48;;;;;;;10.30;8.75;;;31.40;95.60;;;;;;5072558;28;20209;-60
2021/07/24 10:34:20;;;;;;;11.23;8.57;;;31.40;95.30;;;;;;5072134;28;20233;-60
2021/07/24 10:36:48;;;;;;;15.32;7.93;;;31.50;95.10;;;;;;5072416;28;20232;-60
2021/07/24 10:39:20;;;;;;;8.60;7.70;;;31.60;94.00;;;;;;5071841;28;20201;-60
2021/07/24 10:41:48;;;;;;;8.30;7.30;;;31.80;93.10;;;;;;5072343;28;20208;-62
2021/07/24 10:44:17;;;;;;;12.15;8.20;;;32.00;92.50;;;;;;5070211;28;20225;-60
2021/07/24 10:47:11;;;;;;;8.93;7.90;;;32.10;92.30;;;;;;5072101;28;20205;-61
2021/07/24 10:50:00;;;;;;;11.63;7.90;;;31.90;92.50;;;;;;5071944;28;20282;-61
2021/07/24 10:52:55;;;;;;;9.23;8.23;;;32.10;92.70;;;;;;5071979;28;20204;-61
2021/07/24 10:55:42;;;;;;;13.90;8.40;;;32.20;92.30;;;;;;5071313;28;20579;-60
2021/07/24 10:58:10;;;;;;;12.73;8.10;;;32.30;91.30;;;;;;5071583;28;20216;-61
2021/07/24 11:00:50;;;;;;;15.50;8.23;;;32.30;91.00;;;;;;5072139;28;20255;-61
2021/07/24 11:03:52;;;;;;;10.23;7.82;;;32.30;90.80;;;;;;5072056;28;20253;-61
2021/07/24 11:06:36;;;;;;;12.75;8.45;;;32.00;91.50;;;;;;5071925;28;20204;-60
2021/07/24 11:09:10;;;;;;;10.98;7.57;;;32.00;91.70;;;;;;5072410;28;20668;-61
2021/07/24 11:11:38;;;;;;;8.65;7.75;;;32.30;91.60;;;;;;5072011;28;20236;-61
2021/07/24 11:14:06;;;;;;;9.90;8.77;;;32.60;91.20;;;;;;5071307;28;20233;-61
2021/07/24 11:17:11;;;;;;;11.10;7.95;;;33.00;90.30;;;;;;5071245;28;20228;-61
2021/07/24 11:19:39;;;;;;;13.82;8.13;;;33.20;88.30;;;;;;5071296;28;20223;-61
2021/07/24 11:22:11;;;;;;;11.18;7.78;;;33.30;85.80;;;;;;5071272;28;20200;-61
2021/07/24 11:24:38;;;;;;;9.43;8.02;;;33.20;86.60;;;;;;5070002;28;20327;-61
2021/07/24 11:27:05;;;;;;;12.00;8.48;;;33.10;87.20;;;;;;5071047;28;20212;-62
2021/07/24 11:29:33;;;;;;;11.88;8.10;;;33.20;86.70;;;;;;5070686;28;20584;-62
2021/07/24 11:32:02;;;;;;;11.27;7.97;;;33.50;86.20;;;;;;5071753;28;20209;-62
2021/07/24 11:34:30;;;;;;;9.43;7.45;;;33.60;83.10;;;;;;5070656;28;20268;-61
2021/07/24 11:36:58;;;;;;;9.43;8.25;;;33.70;82.40;;;;;;5070826;28;20232;-62
2021/07/24 11:39:25;;;;;;;11.35;7.63;;;34.00;81.50;;;;;;5070727;28;20296;-63
2021/07/24 11:41:52;;;;;;;9.55;7.18;;;34.20;76.20;;;;;;5070690;28;20224;-63
2021/07/24 11:44:26;;;;;;;11.32;6.70;;;34.50;74.10;;;;;;5071013;28;20600;-63
2021/07/24 11:46:58;;;;;;;12.07;8.20;;;34.50;73.00;;;;;;5070844;28;20254;-63
2021/07/24 11:49:25;;;;;;;9.68;7.05;;;34.40;73.10;;;;;;5070815;28;20205;-63
2021/07/24 11:51:52;;;;;;;11.52;7.57;;;34.10;72.80;;;;;;5070773;28;20205;-62
2021/07/24 11:54:33;;;;;;;8.45;7.15;;;33.90;72.40;;;;;;5070250;28;20229;-61
2021/07/24 11:57:00;;;;;;;10.85;8.05;;;33.80;73.10;;;;;;5070810;28;20227;-62
2021/07/24 11:59:28;;;;;;;12.20;7.78;;;33.60;73.90;;;;;;5070625;28;20589;-62
2021/07/24 12:01:56;;;;;;;13.55;8.88;;;33.40;75.10;;;;;;5070691;28;20873;-63
2021/07/24 12:04:23;;;;;;;10.23;8.00;;;33.20;76.00;;;;;;5070278;28;20781;-62
2021/07/24 12:06:57;;;;;;;10.48;8.25;;;32.90;76.80;;;;;;5070381;28;20239;-63
2021/07/24 12:09:24;;;;;;;11.00;7.95;;;32.70;77.40;;;;;;5070980;28;20208;-61
2021/07/24 12:11:53;;;;;;;11.82;8.50;;;32.50;77.80;;;;;;5070818;28;20607;-61
2021/07/24 12:14:24;;;;;;;11.77;8.55;;;32.30;79.00;;;;;;5070723;28;20618;-60
2021/07/24 12:17:05;;;;;;;13.52;7.65;;;32.40;79.50;;;;;;5070871;28;20233;-61
2021/07/24 12:19:37;;;;;;;10.65;7.97;;;32.60;79.60;;;;;;5070882;28;20203;-62
2021/07/24 12:22:17;;;;;;;10.25;8.27;;;32.90;79.30;;;;;;5070650;28;20251;-60
2021/07/24 12:24:45;;;;;;;10.18;8.23;;;33.30;76.90;;;;;;5070603;28;20231;-61
2021/07/24 12:27:13;;;;;;;9.00;7.57;;;33.60;77.00;;;;;;5070466;28;20205;-61
2021/07/24 12:29:51;;;;;;;12.90;8.05;;;33.80;76.60;;;;;;5070666;28;20209;-61
2021/07/24 12:32:21;;;;;;;8.88;7.25;;;34.10;76.50;;;;;;5070645;28;20205;-61
2021/07/24 12:34:48;;;;;;;11.25;8.00;;;34.30;74.10;;;;;;5070312;28;20255;-61
2021/07/24 12:37:29;;;;;;;11.07;7.00;;;34.40;73.70;;;;;;5073864;28;20263;-61
2021/07/24 12:39:56;;;;;;;9.25;7.32;;;34.10;73.80;;;;;;5074222;28;20213;-60
2021/07/24 12:42:31;;;;;;;12.43;6.40;;;33.90;75.00;;;;;;5074045;28;20238;-61
2021/07/24 12:44:58;;;;;;;8.00;5.72;;;33.80;73.70;;;;;;5074263;28;20251;-61